Time;durP1;ratioP1;P1;durP2;ratioP2;P2;SDS_P1;SDS_P2;PMS_P1;PMS_P2;Temp;Humidity;BMP_temperature;BMP_pressure;BME280_temperature;BME280_humidity;BME280_pressure;Samples;Min_cycle;Max_cycle;Signal;HPM_P1;HPM_P2
2021/09/26 00:00:22;;;;;;;14.60;7.15;;;;;;;;;;4950421;29;20043;-77
2021/09/26 00:02:48;;;;;;;15.00;8.93;;;;;;;;;;4951218;29;20497;-77
2021/09/26 00:05:15;;;;;;;21.52;7.55;;;;;;;;;;4950170;28;20068;-77
2021/09/26 00:07:41;;;;;;;19.95;7.45;;;;;;;;;;4951264;29;20538;-77
2021/09/26 00:10:08;;;;;;;17.35;6.97;;;;;;;;;;4951175;29;20140;-77
2021/09/26 00:12:34;;;;;;;21.30;5.72;;;;;;;;;;4951302;29;20055;-77
2021/09/26 00:15:00;;;;;;;18.67;5.53;;;;;;;;;;4933529;29;20039;-78
2021/09/26 00:17:26;;;;;;;13.27;5.78;;;;;;;;;;4950773;29;20822;-77
2021/09/26 00:19:53;;;;;;;16.75;7.63;;;;;;;;;;4930076;29;20103;-77
2021/09/26 00:22:19;;;;;;;20.98;6.97;;;;;;;;;;4931829;29;20040;-77
2021/09/26 00:24:45;;;;;;;15.48;7.75;;;;;;;;;;4933068;29;20031;-77
2021/09/26 00:27:12;;;;;;;22.55;8.52;;;;;;;;;;4950711;29;20035;-77
2021/09/26 00:29:38;;;;;;;15.18;7.10;;;;;;;;;;4950436;29;20036;-77
2021/09/26 00:32:05;;;;;;;16.98;7.70;;;;;;;;;;4950653;29;20042;-77
2021/09/26 00:34:31;;;;;;;20.17;8.85;;;;;;;;;;4949966;29;20031;-78
2021/09/26 00:36:57;;;;;;;14.43;7.05;;;;;;;;;;4950651;29;20646;-77
2021/09/26 00:39:24;;;;;;;18.77;6.00;;;;;;;;;;4950038;29;20039;-77
2021/09/26 00:41:50;;;;;;;26.65;6.65;;;;;;;;;;4932823;29;20389;-77
2021/09/26 00:44:16;;;;;;;12.30;5.35;;;;;;;;;;4950472;29;20038;-77
2021/09/26 00:46:42;;;;;;;17.95;5.68;;;;;;;;;;4937854;29;20483;-77
2021/09/26 00:49:08;;;;;;;20.05;6.80;;;;;;;;;;4931700;29;20035;-77
2021/09/26 00:51:34;;;;;;;18.17;6.63;;;;;;;;;;4932904;29;20032;-77
2021/09/26 00:54:00;;;;;;;16.48;6.32;;;;;;;;;;4951244;29;20050;-77
2021/09/26 00:56:29;;;;;;;13.27;5.82;;;;;;;;;;4925739;29;20036;-77
2021/09/26 00:58:55;;;;;;;17.00;6.10;;;;;;;;;;4931829;29;20035;-77
2021/09/26 01:01:21;;;;;;;18.58;5.47;;;;;;;;;;4936228;29;20039;-77
2021/09/26 01:03:47;;;;;;;15.45;6.20;;;;;;;;;;4950775;29;20043;-77
2021/09/26 01:06:22;;;;;;;17.48;5.88;;;;;;;;;;4950269;29;20035;-77
2021/09/26 01:08:48;;;;;;;17.00;5.97;;;;;;;;;;4950487;29;20114;-77
2021/09/26 01:11:24;;;;;;;12.13;7.07;;;;;;;;;;4953053;28;20439;-77
2021/09/26 01:13:55;;;;;;;19.90;7.88;;;;;;;;;;4953362;29;20050;-77
2021/09/26 01:16:31;;;;;;;16.90;6.32;;;;;;;;;;4954004;29;20469;-77
2021/09/26 01:18:57;;;;;;;16.38;8.77;;;;;;;;;;4934146;29;20155;-77
2021/09/26 01:21:26;;;;;;;12.32;7.15;;;;;;;;;;4934589;29;20110;-77
2021/09/26 01:24:07;;;;;;;14.90;7.35;;;;;;;;;;4943278;28;20031;-78
2021/09/26 01:26:42;;;;;;;19.70;8.90;;;;;;;;;;4953853;29;20046;-78
2021/09/26 01:29:11;;;;;;;15.52;8.20;;;;;;;;;;4930269;29;20083;-77
2021/09/26 01:31:39;;;;;;;17.15;8.93;;;;;;;;;;4934456;29;20043;-77
2021/09/26 01:34:14;;;;;;;15.52;8.02;;;;;;;;;;4934027;29;20039;-77
2021/09/26 01:36:43;;;;;;;21.80;9.32;;;;;;;;;;4934896;29;20911;-77
2021/09/26 01:39:14;;;;;;;18.45;8.32;;;;;;;;;;4941704;28;20406;-77
2021/09/26 01:41:51;;;;;;;16.20;7.50;;;;;;;;;;4936233;29;20039;-77
2021/09/26 01:44:25;;;;;;;20.27;8.52;;;;;;;;;;4952961;29;20035;-77
2021/09/26 01:46:55;;;;;;;18.15;8.65;;;;;;;;;;4947480;28;20031;-77
2021/09/26 01:49:27;;;;;;;15.15;7.68;;;;;;;;;;4953696;29;20054;-77
2021/09/26 01:51:54;;;;;;;20.35;8.48;;;;;;;;;;4929061;29;20114;-77
2021/09/26 01:54:21;;;;;;;17.25;8.05;;;;;;;;;;4953520;29;20039;-77
2021/09/26 01:56:47;;;;;;;20.92;8.27;;;;;;;;;;4935752;29;20126;-77
2021/09/26 01:59:14;;;;;;;13.27;7.40;;;;;;;;;;4953332;29;20042;-77
2021/09/26 02:01:41;;;;;;;15.88;7.70;;;;;;;;;;4952683;28;20114;-78
2021/09/26 02:04:07;;;;;;;17.83;9.45;;;;;;;;;;4952878;29;20039;-77
2021/09/26 02:06:37;;;;;;;15.95;8.43;;;;;;;;;;4952416;28;20038;-77
2021/09/26 02:09:04;;;;;;;17.83;8.07;;;;;;;;;;4953297;29;20434;-77
2021/09/26 02:11:30;;;;;;;20.98;9.40;;;;;;;;;;4932610;29;20423;-77
2021/09/26 02:13:56;;;;;;;14.13;8.20;;;;;;;;;;4952559;29;20032;-77
2021/09/26 02:16:23;;;;;;;19.52;9.13;;;;;;;;;;4953164;29;20039;-77
2021/09/26 02:18:49;;;;;;;21.75;8.85;;;;;;;;;;4947046;29;20035;-77
2021/09/26 02:21:16;;;;;;;18.80;10.50;;;;;;;;;;4952801;28;20031;-77
2021/09/26 02:23:42;;;;;;;18.65;8.82;;;;;;;;;;4944196;28;20040;-77
2021/09/26 02:26:08;;;;;;;21.98;8.23;;;;;;;;;;4933794;29;20715;-77
2021/09/26 02:28:35;;;;;;;22.83;8.70;;;;;;;;;;4938950;28;20035;-77
2021/09/26 02:31:06;;;;;;;17.52;8.93;;;;;;;;;;4934316;29;20076;-77
2021/09/26 02:33:32;;;;;;;16.52;7.75;;;;;;;;;;4938463;28;20483;-77
2021/09/26 02:35:58;;;;;;;17.80;8.55;;;;;;;;;;4952717;29;20071;-77
2021/09/26 02:38:24;;;;;;;17.42;8.68;;;;;;;;;;4949836;29;20078;-77
2021/09/26 02:40:53;;;;;;;16.48;9.25;;;;;;;;;;4935568;28;20035;-77
2021/09/26 02:43:27;;;;;;;17.38;9.93;;;;;;;;;;4951693;29;20035;-77
2021/09/26 02:46:04;;;;;;;18.92;9.10;;;;;;;;;;4952989;29;20039;-77
2021/09/26 02:48:30;;;;;;;17.75;9.05;;;;;;;;;;4945551;29;20086;-77
2021/09/26 02:50:57;;;;;;;20.55;8.20;;;;;;;;;;4939600;29;20453;-77
2021/09/26 02:53:24;;;;;;;19.33;8.40;;;;;;;;;;4954224;28;20126;-77
2021/09/26 02:55:51;;;;;;;18.40;8.98;;;;;;;;;;4960936;28;20042;-77
2021/09/26 02:58:17;;;;;;;19.52;9.20;;;;;;;;;;4937630;28;20053;-77
2021/09/26 03:00:47;;;;;;;18.73;9.25;;;;;;;;;;4971757;28;20525;-77
2021/09/26 03:03:15;;;;;;;17.50;8.65;;;;;;;;;;4939501;29;20070;-77
2021/09/26 03:05:42;;;;;;;15.98;8.50;;;;;;;;;;4934630;29;20390;-77
2021/09/26 03:08:08;;;;;;;17.00;8.55;;;;;;;;;;4951580;29;20043;-77
2021/09/26 03:10:34;;;;;;;17.48;8.93;;;;;;;;;;4932830;29;20482;-77
2021/09/26 03:13:00;;;;;;;15.20;9.10;;;;;;;;;;4932193;29;20084;-77
2021/09/26 03:15:26;;;;;;;19.90;9.60;;;;;;;;;;4932428;29;20084;-77
2021/09/26 03:17:52;;;;;;;20.40;10.02;;;;;;;;;;4921188;29;20044;-77
2021/09/26 03:20:18;;;;;;;17.95;8.73;;;;;;;;;;4913734;29;20044;-77
2021/09/26 03:22:44;;;;;;;18.83;9.93;;;;;;;;;;4928330;29;20092;-77
2021/09/26 03:25:11;;;;;;;20.67;9.15;;;;;;;;;;4915581;29;20483;-77
2021/09/26 03:27:37;;;;;;;18.65;9.10;;;;;;;;;;4919676;29;20527;-77
2021/09/26 03:30:03;;;;;;;17.42;8.70;;;;;;;;;;4913981;29;20781;-78
2021/09/26 03:32:29;;;;;;;18.15;9.70;;;;;;;;;;4915476;29;20031;-77
2021/09/26 03:34:55;;;;;;;15.55;7.97;;;;;;;;;;4932718;29;20043;-77
2021/09/26 03:37:21;;;;;;;17.13;9.02;;;;;;;;;;4907586;29;20081;-77
2021/09/26 03:39:47;;;;;;;21.00;10.07;;;;;;;;;;4897000;29;20111;-77
2021/09/26 03:42:13;;;;;;;18.98;9.00;;;;;;;;;;4917001;29;20044;-77
2021/09/26 03:44:39;;;;;;;18.88;9.05;;;;;;;;;;4913286;29;20084;-77
2021/09/26 03:47:05;;;;;;;18.73;9.13;;;;;;;;;;4928309;29;20070;-77
2021/09/26 03:49:32;;;;;;;18.90;8.68;;;;;;;;;;4915140;29;20035;-77
2021/09/26 03:51:58;;;;;;;20.75;9.23;;;;;;;;;;4944270;29;20038;-77
2021/09/26 03:54:24;;;;;;;21.83;9.63;;;;;;;;;;4928175;29;20790;-77
2021/09/26 03:56:50;;;;;;;16.63;8.93;;;;;;;;;;4933048;29;20035;-77
2021/09/26 03:59:18;;;;;;;21.55;10.50;;;;;;;;;;4933791;29;20807;-77
2021/09/26 04:01:45;;;;;;;34.00;13.27;;;;;;;;;;4943167;29;20031;-78
2021/09/26 04:04:12;;;;;;;31.98;13.32;;;;;;;;;;4932318;29;20076;-77
2021/09/26 04:06:38;;;;;;;27.55;12.55;;;;;;;;;;4914319;29;20036;-77
2021/09/26 04:09:05;;;;;;;26.67;11.40;;;;;;;;;;4932337;29;20062;-77
2021/09/26 04:11:31;;;;;;;28.90;11.88;;;;;;;;;;4943732;28;20043;-77
2021/09/26 04:13:57;;;;;;;28.70;14.55;;;;;;;;;;4970419;28;20030;-77
2021/09/26 04:16:23;;;;;;;29.65;14.05;;;;;;;;;;4968813;28;20039;-77
2021/09/26 04:18:49;;;;;;;24.35;11.57;;;;;;;;;;4932685;29;20792;-77
2021/09/26 04:21:16;;;;;;;24.90;11.20;;;;;;;;;;4931680;29;20105;-77
2021/09/26 04:23:43;;;;;;;20.50;10.77;;;;;;;;;;4948748;29;20375;-77
2021/09/26 04:26:09;;;;;;;23.30;11.57;;;;;;;;;;4937595;29;20454;-77
2021/09/26 04:28:35;;;;;;;26.77;9.95;;;;;;;;;;4946417;29;20052;-77
2021/09/26 04:31:01;;;;;;;25.63;10.40;;;;;;;;;;4951460;29;20034;-77
2021/09/26 04:33:27;;;;;;;19.00;11.38;;;;;;;;;;4937773;28;20036;-77
2021/09/26 04:35:53;;;;;;;23.67;13.15;;;;;;;;;;4932212;29;20039;-77
2021/09/26 04:38:19;;;;;;;21.23;10.75;;;;;;;;;;4941301;29;20054;-77
2021/09/26 04:40:45;;;;;;;24.63;11.32;;;;;;;;;;4951210;29;20039;-77
2021/09/26 04:43:11;;;;;;;17.65;11.32;;;;;;;;;;4957134;28;20039;-77
2021/09/26 04:45:37;;;;;;;19.52;10.57;;;;;;;;;;4972827;28;20898;-77
2021/09/26 04:48:04;;;;;;;17.73;9.85;;;;;;;;;;4968186;28;20059;-77
2021/09/26 04:50:30;;;;;;;22.58;9.50;;;;;;;;;;4936609;29;20027;-77
2021/09/26 04:52:56;;;;;;;16.33;8.80;;;;;;;;;;4937990;28;20890;-77
2021/09/26 04:55:24;;;;;;;23.13;11.50;;;;;;;;;;4938980;28;20043;-77
2021/09/26 04:57:51;;;;;;;25.27;11.95;;;;;;;;;;4945458;28;20043;-77
2021/09/26 05:00:17;;;;;;;24.67;11.30;;;;;;;;;;4950694;28;20471;-77
2021/09/26 05:02:44;;;;;;;23.85;12.57;;;;;;;;;;4937223;29;20039;-77
2021/09/26 05:05:10;;;;;;;17.48;10.10;;;;;;;;;;4928358;29;20031;-77
2021/09/26 05:07:36;;;;;;;22.33;10.13;;;;;;;;;;4953914;28;20040;-77
2021/09/26 05:10:02;;;;;;;19.67;11.95;;;;;;;;;;4954122;29;20135;-77
2021/09/26 05:12:28;;;;;;;26.95;12.50;;;;;;;;;;4949872;29;20059;-78
2021/09/26 05:14:56;;;;;;;22.10;11.70;;;;;;;;;;4950946;29;20031;-77
2021/09/26 05:17:22;;;;;;;24.98;10.32;;;;;;;;;;4936062;29;20035;-77
2021/09/26 05:19:48;;;;;;;24.38;11.05;;;;;;;;;;4954371;28;20454;-77
2021/09/26 05:22:15;;;;;;;14.75;8.30;;;;;;;;;;4950201;29;20043;-77
2021/09/26 05:24:41;;;;;;;18.42;8.00;;;;;;;;;;4953162;29;20035;-77
2021/09/26 05:27:07;;;;;;;21.15;10.02;;;;;;;;;;4952962;29;20035;-77
2021/09/26 05:29:33;;;;;;;19.52;6.93;;;;;;;;;;4954948;28;20037;-77
2021/09/26 05:32:00;;;;;;;15.00;8.70;;;;;;;;;;4972445;28;20046;-77
2021/09/26 05:34:26;;;;;;;19.10;8.77;;;;;;;;;;4972061;28;20035;-77
2021/09/26 05:36:52;;;;;;;13.02;7.57;;;;;;;;;;4953423;28;20039;-76
2021/09/26 05:39:20;;;;;;;16.92;7.63;;;;;;;;;;4953802;28;20055;-77
2021/09/26 05:41:46;;;;;;;16.92;7.70;;;;;;;;;;4939510;28;20040;-77
2021/09/26 05:44:12;;;;;;;15.95;7.65;;;;;;;;;;4934829;29;20486;-77
2021/09/26 05:46:38;;;;;;;16.05;8.02;;;;;;;;;;4949220;29;20122;-77
2021/09/26 05:49:04;;;;;;;11.02;6.97;;;;;;;;;;4953869;29;20042;-78
2021/09/26 05:51:30;;;;;;;17.13;7.18;;;;;;;;;;4953080;28;20035;-78
2021/09/26 05:53:56;;;;;;;17.50;7.65;;;;;;;;;;4953384;29;20019;-77
2021/09/26 05:56:22;;;;;;;11.95;6.90;;;;;;;;;;4942577;28;20527;-77
2021/09/26 05:58:48;;;;;;;16.90;6.70;;;;;;;;;;4929309;29;20079;-77
2021/09/26 06:01:14;;;;;;;13.55;6.85;;;;;;;;;;4947448;28;20075;-78
2021/09/26 06:03:41;;;;;;;11.32;7.28;;;;;;;;;;4935176;29;20038;-77
2021/09/26 06:06:07;;;;;;;9.43;5.45;;;;;;;;;;4938044;28;20038;-77
2021/09/26 06:08:34;;;;;;;11.65;5.72;;;;;;;;;;4953685;29;20688;-78
2021/09/26 06:11:00;;;;;;;11.85;5.88;;;;;;;;;;4935140;28;20599;-78
2021/09/26 06:13:26;;;;;;;10.32;6.07;;;;;;;;;;4947470;28;20376;-78
2021/09/26 06:15:52;;;;;;;13.30;6.45;;;;;;;;;;4944545;29;20039;-77
2021/09/26 06:18:18;;;;;;;13.13;5.80;;;;;;;;;;4949160;28;20050;-78
2021/09/26 06:20:45;;;;;;;12.77;5.63;;;;;;;;;;4958072;28;20622;-78
2021/09/26 06:23:11;;;;;;;10.80;5.78;;;;;;;;;;4937017;28;20618;-78
2021/09/26 06:25:37;;;;;;;10.13;6.18;;;;;;;;;;4960930;28;20043;-78
2021/09/26 06:28:03;;;;;;;9.55;5.93;;;;;;;;;;4937449;28;20035;-78
2021/09/26 06:30:29;;;;;;;12.48;5.47;;;;;;;;;;4956892;23;20061;-77
2021/09/26 06:32:56;;;;;;;13.45;5.65;;;;;;;;;;4944516;28;20039;-78
2021/09/26 06:35:22;;;;;;;9.23;5.22;;;;;;;;;;4952113;29;20047;-78
2021/09/26 06:37:49;;;;;;;11.80;4.93;;;;;;;;;;4951985;29;20083;-78
2021/09/26 06:40:16;;;;;;;11.07;4.97;;;;;;;;;;4942341;29;20093;-77
2021/09/26 06:42:42;;;;;;;12.63;6.20;;;;;;;;;;4942316;28;20449;-77
2021/09/26 06:45:09;;;;;;;12.02;5.25;;;;;;;;;;4936056;28;20035;-77
2021/09/26 06:47:35;;;;;;;13.40;6.38;;;;;;;;;;4929861;29;20036;-77
2021/09/26 06:50:01;;;;;;;10.05;6.18;;;;;;;;;;4932761;29;20042;-77
2021/09/26 06:52:27;;;;;;;10.35;5.20;;;;;;;;;;4933057;29;20118;-77
2021/09/26 06:54:53;;;;;;;10.65;5.50;;;;;;;;;;4951882;28;20814;-77
2021/09/26 06:57:19;;;;;;;9.20;5.65;;;;;;;;;;4954472;28;20042;-77
2021/09/26 06:59:45;;;;;;;10.90;5.00;;;;;;;;;;4947718;29;20043;-78
2021/09/26 07:02:13;;;;;;;11.57;6.60;;;;;;;;;;4947944;28;20082;-78
2021/09/26 07:04:39;;;;;;;10.57;6.57;;;;;;;;;;4938887;28;20047;-77
2021/09/26 07:07:05;;;;;;;10.25;7.10;;;;;;;;;;4950525;28;20043;-78
2021/09/26 07:09:31;;;;;;;11.93;7.47;;;;;;;;;;4923912;28;20412;-77
2021/09/26 07:11:57;;;;;;;10.07;7.13;;;;;;;;;;4932743;29;20038;-78
2021/09/26 07:14:23;;;;;;;12.20;7.78;;;;;;;;;;4929826;29;20048;-78
2021/09/26 07:16:49;;;;;;;13.98;7.35;;;;;;;;;;4923195;29;20894;-78
2021/09/26 07:19:15;;;;;;;13.70;8.88;;;;;;;;;;4926591;29;20072;-78
2021/09/26 07:21:41;;;;;;;11.40;8.82;;;;;;;;;;4925216;29;20079;-78
2021/09/26 07:24:08;;;;;;;10.23;7.80;;;;;;;;;;4932094;29;20719;-77
2021/09/26 07:26:34;;;;;;;13.20;7.93;;;;;;;;;;4921704;29;20035;-78
2021/09/26 07:29:00;;;;;;;8.93;5.65;;;;;;;;;;4935565;29;20246;-77
2021/09/26 07:31:26;;;;;;;8.45;5.25;;;;;;;;;;4907234;29;20087;-78
2021/09/26 07:33:52;;;;;;;8.82;4.75;;;;;;;;;;4903543;29;20103;-77
2021/09/26 07:36:18;;;;;;;8.85;4.82;;;;;;;;;;4913087;29;20114;-77
2021/09/26 07:38:44;;;;;;;7.65;5.13;;;;;;;;;;4914959;29;20024;-77
2021/09/26 07:41:10;;;;;;;9.90;6.32;;;;;;;;;;4911244;29;21360;-77
2021/09/26 07:43:36;;;;;;;11.45;7.90;;;;;;;;;;4902371;29;20030;-78
2021/09/26 07:46:02;;;;;;;11.52;7.75;;;;;;;;;;4919617;29;20039;-77
2021/09/26 07:48:28;;;;;;;10.73;7.95;;;;;;;;;;4905496;29;20028;-78
2021/09/26 07:50:54;;;;;;;7.78;6.82;;;;;;;;;;4908521;29;20486;-78
2021/09/26 07:53:20;;;;;;;10.13;7.03;;;;;;;;;;4898541;29;20170;-78
2021/09/26 07:55:48;;;;;;;12.07;8.05;;;;;;;;;;4906367;29;20115;-78
2021/09/26 07:58:15;;;;;;;8.88;7.75;;;;;;;;;;4909176;29;20417;-78
2021/09/26 08:00:40;;;;;;;10.43;8.00;;;;;;;;;;4908834;29;20052;-78
2021/09/26 08:03:06;;;;;;;11.90;8.80;;;;;;;;;;4901585;29;20884;-78
2021/09/26 08:05:33;;;;;;;9.25;6.53;;;;;;;;;;4913144;29;20071;-78
2021/09/26 08:07:58;;;;;;;10.93;7.45;;;;;;;;;;4910356;29;20028;-78
2021/09/26 08:10:25;;;;;;;7.93;5.35;;;;;;;;;;4907477;29;20037;-77
2021/09/26 08:12:51;;;;;;;7.00;3.30;;;;;;;;;;4923070;29;20036;-78
2021/09/26 08:15:17;;;;;;;7.85;5.28;;;;;;;;;;4903274;29;20067;-77
2021/09/26 08:17:43;;;;;;;6.65;4.60;;;;;;;;;;4911228;29;20028;-78
2021/09/26 08:20:10;;;;;;;9.60;4.28;;;;;;;;;;4913240;29;20480;-77
2021/09/26 08:22:36;;;;;;;7.70;4.20;;;;;;;;;;4908901;29;20067;-77
2021/09/26 08:25:03;;;;;;;6.82;4.63;;;;;;;;;;4919747;29;20096;-77
2021/09/26 08:27:30;;;;;;;10.38;5.15;;;;;;;;;;4919484;29;20028;-77
2021/09/26 08:29:56;;;;;;;7.60;4.43;;;;;;;;;;4906853;29;20051;-77
2021/09/26 08:32:22;;;;;;;8.77;4.30;;;;;;;;;;4915760;29;20031;-77
2021/09/26 08:34:48;;;;;;;5.03;3.67;;;;;;;;;;4917316;29;20040;-77
2021/09/26 08:37:14;;;;;;;7.60;3.92;;;;;;;;;;4930918;29;20091;-77
2021/09/26 08:39:40;;;;;;;6.20;4.40;;;;;;;;;;4923946;29;20488;-77
2021/09/26 08:42:06;;;;;;;7.43;3.67;;;;;;;;;;4936575;29;20027;-77
2021/09/26 08:44:32;;;;;;;8.35;3.95;;;;;;;;;;4915555;29;20055;-78
2021/09/26 08:47:00;;;;;;;9.45;3.90;;;;;;;;;;4915621;29;20028;-77
2021/09/26 08:49:26;;;;;;;8.85;4.43;;;;;;;;;;4930523;29;20061;-77
2021/09/26 08:51:53;;;;;;;5.38;2.67;;;;;;;;;;4929506;29;20475;-77
2021/09/26 08:54:19;;;;;;;7.30;4.88;;;;;;;;;;4942582;29;20035;-77
2021/09/26 08:56:45;;;;;;;8.75;4.75;;;;;;;;;;4924553;29;20028;-76
2021/09/26 08:59:12;;;;;;;9.35;5.60;;;;;;;;;;4923277;29;20043;-77
2021/09/26 09:01:38;;;;;;;6.35;4.15;;;;;;;;;;4935073;29;20516;-76
2021/09/26 09:04:04;;;;;;;7.22;4.40;;;;;;;;;;4928179;29;20064;-76
2021/09/26 09:06:42;;;;;;;6.38;4.03;;;;;;;;;;4922274;29;20037;-77
2021/09/26 09:09:09;;;;;;;7.80;4.13;;;;;;;;;;4920716;29;20047;-76
2021/09/26 09:11:35;;;;;;;8.23;2.97;;;;;;;;;;4918166;29;20028;-76
2021/09/26 09:14:01;;;;;;;6.10;2.42;;;;;;;;;;4920035;29;20044;-73
2021/09/26 09:16:34;;;;;;;3.05;1.83;;;;;;;;;;4921123;29;20031;-72
2021/09/26 09:19:02;;;;;;;5.25;2.28;;;;;;;;;;4921836;29;20122;-73
2021/09/26 09:21:30;;;;;;;3.40;2.00;;;;;;;;;;4919730;29;20465;-74
2021/09/26 09:24:11;;;;;;;2.75;1.63;;;;;;;;;;4920543;29;20035;-73
2021/09/26 09:26:38;;;;;;;4.32;2.22;;;;;;;;;;4909199;29;20032;-73
2021/09/26 09:29:04;;;;;;;6.43;2.72;;;;;;;;;;4921056;29;20675;-77
2021/09/26 09:31:30;;;;;;;8.95;4.07;;;;;;;;;;4919745;29;20078;-76
2021/09/26 09:33:57;;;;;;;7.38;3.35;;;;;;;;;;4929520;29;20147;-77
2021/09/26 09:36:27;;;;;;;5.88;3.20;;;;;;;;;;4927481;29;20043;-77
2021/09/26 09:38:57;;;;;;;7.15;3.67;;;;;;;;;;4934758;29;20062;-76
2021/09/26 09:41:32;;;;;;;6.75;4.47;;;;;;;;;;4931659;29;20039;-76
2021/09/26 09:43:58;;;;;;;7.50;4.80;;;;;;;;;;4930165;29;20055;-77
2021/09/26 09:46:29;;;;;;;6.80;4.10;;;;;;;;;;4931846;29;20443;-76
2021/09/26 09:49:11;;;;;;;6.30;4.20;;;;;;;;;;4926341;29;20960;-76
2021/09/26 09:51:47;;;;;;;8.13;4.60;;;;;;;;;;4920034;29;20036;-76
2021/09/26 09:54:13;;;;;;;5.15;3.50;;;;;;;;;;4935136;29;20034;-76
2021/09/26 09:56:41;;;;;;;5.60;3.53;;;;;;;;;;4934542;29;20107;-77
2021/09/26 09:59:07;;;;;;;3.45;2.10;;;;;;;;;;4935950;29;20032;-76
2021/09/26 10:01:36;;;;;;;6.60;3.13;;;;;;;;;;4934662;29;20039;-77
2021/09/26 10:04:11;;;;;;;5.63;3.08;;;;;;;;;;4933732;29;20038;-77
2021/09/26 10:06:40;;;;;;;5.20;3.25;;;;;;;;;;4932896;29;20059;-77
2021/09/26 10:09:20;;;;;;;3.55;2.00;;;;;;;;;;4934025;29;20031;-76
2021/09/26 10:11:47;;;;;;;4.18;2.40;;;;;;;;;;4928046;29;20028;-77
2021/09/26 10:14:14;;;;;;;6.00;2.20;;;;;;;;;;4930801;29;20156;-77
2021/09/26 10:16:40;;;;;;;3.80;2.38;;;;;;;;;;4923467;29;20096;-77
2021/09/26 10:19:06;;;;;;;3.85;1.73;;;;;;;;;;4923886;29;20032;-77
2021/09/26 10:21:32;;;;;;;3.63;2.00;;;;;;;;;;4931553;29;20032;-78
2021/09/26 10:23:59;;;;;;;3.55;1.92;;;;;;;;;;4920888;29;20042;-77
2021/09/26 10:26:26;;;;;;;3.53;2.05;;;;;;;;;;4939474;29;20465;-77
2021/09/26 10:28:54;;;;;;;3.03;1.77;;;;;;;;;;4932888;29;20099;-77
2021/09/26 10:31:20;;;;;;;3.70;1.85;;;;;;;;;;4923770;29;20063;-77
2021/09/26 10:33:47;;;;;;;4.25;2.65;;;;;;;;;;4930426;29;20035;-77
2021/09/26 10:36:17;;;;;;;6.22;2.13;;;;;;;;;;4934274;29;20039;-76
2021/09/26 10:38:44;;;;;;;3.97;2.45;;;;;;;;;;4924132;29;20884;-77
2021/09/26 10:41:10;;;;;;;4.15;2.25;;;;;;;;;;4935177;29;20084;-77
2021/09/26 10:43:36;;;;;;;3.58;2.10;;;;;;;;;;4927487;29;20063;-77
2021/09/26 10:46:12;;;;;;;3.50;1.83;;;;;;;;;;4929357;29;20039;-77
2021/09/26 10:48:56;;;;;;;3.65;1.77;;;;;;;;;;4929772;29;20122;-76
2021/09/26 10:51:58;;;;;;;4.32;2.00;;;;;;;;;;4929696;29;20043;-76
2021/09/26 10:54:35;;;;;;;4.97;2.13;;;;;;;;;;4857307;29;20045;-76
2021/09/26 10:57:04;;;;;;;5.28;3.03;;;;;;;;;;4916981;29;20423;-77
2021/09/26 10:59:37;;;;;;;5.78;2.75;;;;;;;;;;4932257;29;20087;-77
2021/09/26 11:02:22;;;;;;;4.38;3.10;;;;;;;;;;4932283;29;20427;-77
2021/09/26 11:05:08;;;;;;;5.15;2.70;;;;;;;;;;4930875;29;20047;-77
2021/09/26 11:07:46;;;;;;;5.53;3.03;;;;;;;;;;4932795;28;20031;-77
2021/09/26 11:10:14;;;;;;;4.72;3.08;;;;;;;;;;4947094;29;20056;-76
2021/09/26 11:12:41;;;;;;;5.13;3.55;;;;;;;;;;4929316;29;20028;-77
2021/09/26 11:15:10;;;;;;;5.20;3.15;;;;;;;;;;4929592;29;20471;-77
2021/09/26 11:17:43;;;;;;;4.00;2.83;;;;;;;;;;4926864;29;20028;-77
2021/09/26 11:20:13;;;;;;;4.47;3.35;;;;;;;;;;4926307;29;20107;-77
2021/09/26 11:22:39;;;;;;;5.47;3.60;;;;;;;;;;4927948;29;20491;-77
2021/09/26 11:25:05;;;;;;;5.25;3.10;;;;;;;;;;4929959;29;20043;-77
2021/09/26 11:27:36;;;;;;;4.97;3.03;;;;;;;;;;4928823;29;20024;-77
2021/09/26 11:30:02;;;;;;;6.43;3.50;;;;;;;;;;4927823;29;20589;-77
2021/09/26 11:32:29;;;;;;;5.28;3.20;;;;;;;;;;4930134;29;20063;-77
2021/09/26 11:34:57;;;;;;;5.10;3.15;;;;;;;;;;4929203;29;20051;-77
2021/09/26 11:37:35;;;;;;;4.38;3.00;;;;;;;;;;4921108;29;20066;-77
2021/09/26 11:40:03;;;;;;;5.15;3.08;;;;;;;;;;4922450;29;20036;-77
2021/09/26 11:42:33;;;;;;;4.93;3.00;;;;;;;;;;4935370;29;20106;-77
2021/09/26 11:45:01;;;;;;;5.05;3.38;;;;;;;;;;4931098;29;20039;-77
2021/09/26 11:47:28;;;;;;;4.70;2.55;;;;;;;;;;4932028;29;20023;-77
2021/09/26 11:49:54;;;;;;;5.32;2.80;;;;;;;;;;4923479;29;20036;-77
2021/09/26 11:52:23;;;;;;;6.07;3.08;;;;;;;;;;4930583;29;20144;-77
2021/09/26 11:54:58;;;;;;;4.45;3.00;;;;;;;;;;4931071;29;20048;-77
2021/09/26 11:57:24;;;;;;;4.80;3.00;;;;;;;;;;4929402;29;20035;-77
2021/09/26 11:59:50;;;;;;;4.38;2.70;;;;;;;;;;4931663;29;20043;-77
2021/09/26 12:02:17;;;;;;;4.00;2.70;;;;;;;;;;4937876;29;20035;-78
2021/09/26 12:04:43;;;;;;;4.25;2.10;;;;;;;;;;4934382;29;20046;-77
2021/09/26 12:07:10;;;;;;;4.15;2.30;;;;;;;;;;4927988;29;20035;-77
2021/09/26 12:09:43;;;;;;;4.30;2.28;;;;;;;;;;4923663;29;20042;-78
2021/09/26 12:12:14;;;;;;;4.88;2.58;;;;;;;;;;4930456;29;20030;-77
2021/09/26 12:14:41;;;;;;;5.75;2.15;;;;;;;;;;4917902;29;20041;-77
2021/09/26 12:17:09;;;;;;;4.65;2.20;;;;;;;;;;4920877;29;20047;-78
2021/09/26 12:19:36;;;;;;;3.78;2.30;;;;;;;;;;4924842;29;20119;-77
2021/09/26 12:22:01;;;;;;;4.22;2.33;;;;;;;;;;4924966;29;20498;-77
2021/09/26 12:24:36;;;;;;;3.47;2.33;;;;;;;;;;4933085;29;20125;-77
2021/09/26 12:27:13;;;;;;;5.30;2.15;;;;;;;;;;4927473;29;20024;-77
2021/09/26 12:29:48;;;;;;;3.50;2.45;;;;;;;;;;4924968;29;20463;-77
2021/09/26 12:32:14;;;;;;;4.50;2.40;;;;;;;;;;4930473;29;20086;-77
2021/09/26 12:34:45;;;;;;;4.38;2.40;;;;;;;;;;4938586;29;20044;-77
2021/09/26 12:37:19;;;;;;;5.22;2.33;;;;;;;;;;4935369;29;20031;-77
2021/09/26 12:39:46;;;;;;;4.82;1.98;;;;;;;;;;4931073;29;20403;-77
2021/09/26 12:42:22;;;;;;;4.78;2.50;;;;;;;;;;4945783;29;20031;-77
2021/09/26 12:44:48;;;;;;;5.38;2.03;;;;;;;;;;4929579;29;20040;-77
2021/09/26 12:47:30;;;;;;;3.53;1.88;;;;;;;;;;4929294;29;20110;-77
2021/09/26 12:49:58;;;;;;;6.20;2.08;;;;;;;;;;4927899;29;20499;-77
2021/09/26 12:52:26;;;;;;;3.33;2.10;;;;;;;;;;4928861;29;20028;-78
2021/09/26 12:54:56;;;;;;;4.88;2.38;;;;;;;;;;4933962;29;20122;-77
2021/09/26 12:57:24;;;;;;;3.67;2.17;;;;;;;;;;4921329;29;20040;-77
2021/09/26 12:59:51;;;;;;;4.13;1.73;;;;;;;;;;4926197;29;20114;-77
2021/09/26 13:02:19;;;;;;;3.33;2.38;;;;;;;;;;4932199;29;20028;-77
2021/09/26 13:04:56;;;;;;;6.07;2.17;;;;;;;;;;4931813;29;20151;-77
2021/09/26 13:07:24;;;;;;;3.85;2.40;;;;;;;;;;4936099;29;20107;-77
2021/09/26 13:09:58;;;;;;;3.78;2.22;;;;;;;;;;4933028;29;20078;-77
2021/09/26 13:12:33;;;;;;;3.60;2.10;;;;;;;;;;4934161;29;20034;-77
2021/09/26 13:15:11;;;;;;;4.07;2.30;;;;;;;;;;4926400;29;20115;-77
2021/09/26 13:17:38;;;;;;;3.63;2.17;;;;;;;;;;4935708;29;20034;-77
2021/09/26 13:20:33;;;;;;;3.28;2.00;;;;;;;;;;4935831;29;20047;-77
2021/09/26 13:23:18;;;;;;;3.35;1.80;;;;;;;;;;4905501;29;20123;-77
2021/09/26 13:25:44;;;;;;;6.25;2.40;;;;;;;;;;4935059;29;20051;-77
2021/09/26 13:28:14;;;;;;;3.60;2.30;;;;;;;;;;4935618;29;20034;-77
2021/09/26 13:30:41;;;;;;;4.10;2.40;;;;;;;;;;4934956;29;20856;-78
2021/09/26 13:33:27;;;;;;;3.50;2.13;;;;;;;;;;4935484;29;20039;-77
2021/09/26 13:35:53;;;;;;;3.42;2.10;;;;;;;;;;4932820;29;20039;-77
2021/09/26 13:38:25;;;;;;;4.47;2.50;;;;;;;;;;4920108;29;20050;-78
2021/09/26 13:40:51;;;;;;;;;;;;;;;;;;4934095;29;20127;-78
2021/09/26 13:43:37;;;;;;;3.47;2.22;;;;;;;;;;4933651;29;19997;-77
2021/09/26 13:46:05;;;;;;;5.57;2.45;;;;;;;;;;4933961;29;20040;-77
2021/09/26 13:48:33;;;;;;;7.10;2.80;;;;;;;;;;4915852;29;20043;-78
2021/09/26 13:50:59;;;;;;;3.50;2.17;;;;;;;;;;4936873;29;20031;-78
2021/09/26 13:53:26;;;;;;;5.38;2.13;;;;;;;;;;4920069;29;20059;-77
2021/09/26 13:55:53;;;;;;;4.85;2.50;;;;;;;;;;4934570;29;20903;-77
2021/09/26 13:58:19;;;;;;;6.38;2.50;;;;;;;;;;4934027;29;20040;-78
2021/09/26 14:00:46;;;;;;;4.95;2.22;;;;;;;;;;4954130;29;20039;-78
2021/09/26 14:03:12;;;;;;;4.90;2.60;;;;;;;;;;4940375;29;20089;-78
2021/09/26 14:05:38;;;;;;;3.42;2.25;;;;;;;;;;4934918;29;20730;-78
2021/09/26 14:08:05;;;;;;;3.60;2.10;;;;;;;;;;4923991;29;20036;-77
2021/09/26 14:10:31;;;;;;;3.40;2.10;;;;;;;;;;4916009;29;20044;-78
2021/09/26 14:12:57;;;;;;;5.47;2.15;;;;;;;;;;4929117;29;20490;-77
2021/09/26 14:15:23;;;;;;;3.92;2.10;;;;;;;;;;4934588;29;20051;-78
2021/09/26 14:17:49;;;;;;;4.13;1.80;;;;;;;;;;4931983;29;20046;-78
2021/09/26 14:20:15;;;;;;;4.18;1.90;;;;;;;;;;4934452;29;20119;-78
2021/09/26 14:22:41;;;;;;;2.83;1.85;;;;;;;;;;4933086;29;20047;-78
2021/09/26 14:25:08;;;;;;;4.07;1.80;;;;;;;;;;4934523;29;20051;-78
2021/09/26 14:27:34;;;;;;;2.75;1.90;;;;;;;;;;4933566;29;20027;-78
2021/09/26 14:30:00;;;;;;;3.80;2.00;;;;;;;;;;4933315;29;20032;-78
2021/09/26 14:32:27;;;;;;;3.55;2.40;;;;;;;;;;4933748;29;20047;-77
2021/09/26 14:34:53;;;;;;;3.38;1.83;;;;;;;;;;4934434;29;20043;-78
2021/09/26 14:37:19;;;;;;;3.25;1.88;;;;;;;;;;4952992;29;20058;-78
2021/09/26 14:39:45;;;;;;;2.60;1.65;;;;;;;;;;4936791;29;20044;-78